sensor_id;sensor_type;location;lat;lon;timestamp;P1;durP1;ratioP1;P2;durP2;ratioP2
79076;SDS011;68477;42.698;23.342;2023-07-20T00:00:52;7.13;;;2.85;;
79076;SDS011;68477;42.698;23.342;2023-07-20T00:03:18;9.98;;;2.53;;
79076;SDS011;68477;42.698;23.342;2023-07-20T00:05:48;7.93;;;3.40;;
79076;SDS011;68477;42.698;23.342;2023-07-20T00:08:14;8.70;;;3.15;;
79076;SDS011;68477;42.698;23.342;2023-07-20T00:10:40;7.72;;;2.55;;
79076;SDS011;68477;42.698;23.342;2023-07-20T00:13:06;7.28;;;2.60;;
79076;SDS011;68477;42.698;23.342;2023-07-20T00:15:31;8.75;;;3.53;;
79076;SDS011;68477;42.698;23.342;2023-07-20T00:17:57;9.77;;;3.17;;
79076;SDS011;68477;42.698;23.342;2023-07-20T00:20:23;10.77;;;2.83;;
79076;SDS011;68477;42.698;23.342;2023-07-20T00:22:50;6.47;;;3.00;;
79076;SDS011;68477;42.698;23.342;2023-07-20T00:25:16;12.43;;;3.05;;
79076;SDS011;68477;42.698;23.342;2023-07-20T00:27:42;9.82;;;3.03;;
79076;SDS011;68477;42.698;23.342;2023-07-20T00:30:07;5.50;;;2.95;;
79076;SDS011;68477;42.698;23.342;2023-07-20T00:32:33;7.82;;;2.67;;
79076;SDS011;68477;42.698;23.342;2023-07-20T00:34:58;15.57;;;3.60;;
79076;SDS011;68477;42.698;23.342;2023-07-20T00:37:24;9.95;;;2.97;;
79076;SDS011;68477;42.698;23.342;2023-07-20T00:39:50;7.20;;;2.75;;
79076;SDS011;68477;42.698;23.342;2023-07-20T00:42:16;10.52;;;2.75;;
79076;SDS011;68477;42.698;23.342;2023-07-20T00:44:42;11.40;;;3.90;;
79076;SDS011;68477;42.698;23.342;2023-07-20T00:47:07;8.30;;;2.63;;
79076;SDS011;68477;42.698;23.342;2023-07-20T00:49:32;7.50;;;3.28;;
79076;SDS011;68477;42.698;23.342;2023-07-20T00:51:59;9.90;;;2.90;;
79076;SDS011;68477;42.698;23.342;2023-07-20T00:54:26;8.30;;;3.13;;
79076;SDS011;68477;42.698;23.342;2023-07-20T00:56:53;6.30;;;2.53;;
79076;SDS011;68477;42.698;23.342;2023-07-20T00:59:19;8.77;;;3.30;;
79076;SDS011;68477;42.698;23.342;2023-07-20T01:01:46;11.95;;;3.28;;
79076;SDS011;68477;42.698;23.342;2023-07-20T01:04:11;7.18;;;2.60;;
79076;SDS011;68477;42.698;23.342;2023-07-20T01:09:26;7.57;;;2.55;;
79076;SDS011;68477;42.698;23.342;2023-07-20T01:12:02;12.10;;;3.30;;
79076;SDS011;68477;42.698;23.342;2023-07-20T01:14:32;9.15;;;2.42;;
79076;SDS011;68477;42.698;23.342;2023-07-20T01:16:59;8.50;;;2.38;;
79076;SDS011;68477;42.698;23.342;2023-07-20T01:19:25;7.00;;;2.53;;
79076;SDS011;68477;42.698;23.342;2023-07-20T01:22:47;9.23;;;2.45;;
79076;SDS011;68477;42.698;23.342;2023-07-20T01:33:09;3.58;;;1.90;;
79076;SDS011;68477;42.698;23.342;2023-07-20T01:35:36;7.75;;;2.85;;
79076;SDS011;68477;42.698;23.342;2023-07-20T01:38:03;7.32;;;2.97;;
79076;SDS011;68477;42.698;23.342;2023-07-20T01:40:29;6.65;;;2.30;;
79076;SDS011;68477;42.698;23.342;2023-07-20T01:42:55;6.63;;;2.47;;
79076;SDS011;68477;42.698;23.342;2023-07-20T01:45:21;7.15;;;2.38;;
79076;SDS011;68477;42.698;23.342;2023-07-20T01:47:46;5.90;;;2.42;;
79076;SDS011;68477;42.698;23.342;2023-07-20T01:50:12;6.15;;;2.10;;
79076;SDS011;68477;42.698;23.342;2023-07-20T01:52:37;7.43;;;3.30;;
79076;SDS011;68477;42.698;23.342;2023-07-20T01:55:03;6.45;;;2.45;;
79076;SDS011;68477;42.698;23.342;2023-07-20T01:57:29;6.80;;;2.25;;
79076;SDS011;68477;42.698;23.342;2023-07-20T01:59:55;7.82;;;2.78;;
79076;SDS011;68477;42.698;23.342;2023-07-20T02:02:20;8.70;;;2.70;;
79076;SDS011;68477;42.698;23.342;2023-07-20T02:04:46;4.68;;;2.40;;
79076;SDS011;68477;42.698;23.342;2023-07-20T02:07:12;5.63;;;2.53;;
79076;SDS011;68477;42.698;23.342;2023-07-20T02:09:38;5.13;;;2.55;;
79076;SDS011;68477;42.698;23.342;2023-07-20T02:12:03;4.35;;;2.60;;
79076;SDS011;68477;42.698;23.342;2023-07-20T02:14:29;5.82;;;2.10;;
79076;SDS011;68477;42.698;23.342;2023-07-20T02:16:54;8.05;;;2.75;;
79076;SDS011;68477;42.698;23.342;2023-07-20T02:19:24;5.38;;;2.30;;
79076;SDS011;68477;42.698;23.342;2023-07-20T02:21:51;6.85;;;3.10;;
79076;SDS011;68477;42.698;23.342;2023-07-20T02:24:17;10.10;;;2.70;;
79076;SDS011;68477;42.698;23.342;2023-07-20T02:26:42;6.40;;;2.67;;
79076;SDS011;68477;42.698;23.342;2023-07-20T02:29:08;10.18;;;2.63;;
79076;SDS011;68477;42.698;23.342;2023-07-20T02:31:36;8.73;;;2.72;;
79076;SDS011;68477;42.698;23.342;2023-07-20T02:34:02;8.10;;;2.80;;
79076;SDS011;68477;42.698;23.342;2023-07-20T02:36:28;5.70;;;2.60;;
79076;SDS011;68477;42.698;23.342;2023-07-20T02:38:53;5.05;;;2.47;;
79076;SDS011;68477;42.698;23.342;2023-07-20T02:41:19;5.05;;;2.53;;
79076;SDS011;68477;42.698;23.342;2023-07-20T02:43:45;7.38;;;2.67;;
79076;SDS011;68477;42.698;23.342;2023-07-20T02:46:10;10.93;;;4.03;;
79076;SDS011;68477;42.698;23.342;2023-07-20T02:48:36;4.45;;;2.58;;
79076;SDS011;68477;42.698;23.342;2023-07-20T02:51:01;7.20;;;2.65;;
79076;SDS011;68477;42.698;23.342;2023-07-20T02:53:27;9.45;;;2.65;;
79076;SDS011;68477;42.698;23.342;2023-07-20T02:55:52;7.68;;;2.55;;
79076;SDS011;68477;42.698;23.342;2023-07-20T02:58:18;8.82;;;2.60;;
79076;SDS011;68477;42.698;23.342;2023-07-20T03:00:44;6.60;;;2.40;;
79076;SDS011;68477;42.698;23.342;2023-07-20T03:03:09;12.90;;;2.75;;
79076;SDS011;68477;42.698;23.342;2023-07-20T03:05:35;14.43;;;2.72;;
79076;SDS011;68477;42.698;23.342;2023-07-20T03:10:28;5.65;;;2.67;;
79076;SDS011;68477;42.698;23.342;2023-07-20T03:12:55;10.35;;;2.53;;
79076;SDS011;68477;42.698;23.342;2023-07-20T03:15:22;9.60;;;2.97;;
79076;SDS011;68477;42.698;23.342;2023-07-20T03:17:47;11.55;;;2.63;;
79076;SDS011;68477;42.698;23.342;2023-07-20T03:20:13;5.38;;;2.90;;
79076;SDS011;68477;42.698;23.342;2023-07-20T03:22:38;6.88;;;2.90;;
79076;SDS011;68477;42.698;23.342;2023-07-20T03:25:04;10.60;;;3.58;;
79076;SDS011;68477;42.698;23.342;2023-07-20T03:27:29;6.60;;;2.65;;
79076;SDS011;68477;42.698;23.342;2023-07-20T03:29:55;5.88;;;2.55;;
79076;SDS011;68477;42.698;23.342;2023-07-20T03:32:21;9.82;;;3.50;;
79076;SDS011;68477;42.698;23.342;2023-07-20T03:34:46;8.98;;;2.97;;
79076;SDS011;68477;42.698;23.342;2023-07-20T03:37:12;5.85;;;2.90;;
79076;SDS011;68477;42.698;23.342;2023-07-20T03:39:38;10.02;;;3.10;;
79076;SDS011;68477;42.698;23.342;2023-07-20T03:42:03;6.22;;;3.35;;
79076;SDS011;68477;42.698;23.342;2023-07-20T03:44:30;11.90;;;3.17;;
79076;SDS011;68477;42.698;23.342;2023-07-20T03:46:55;14.20;;;3.13;;
79076;SDS011;68477;42.698;23.342;2023-07-20T03:49:21;8.48;;;3.00;;
79076;SDS011;68477;42.698;23.342;2023-07-20T03:51:46;14.82;;;3.80;;
79076;SDS011;68477;42.698;23.342;2023-07-20T03:54:12;10.20;;;3.10;;
79076;SDS011;68477;42.698;23.342;2023-07-20T03:56:37;9.43;;;3.58;;
79076;SDS011;68477;42.698;23.342;2023-07-20T03:59:03;9.80;;;3.30;;
79076;SDS011;68477;42.698;23.342;2023-07-20T04:01:30;9.98;;;3.28;;
79076;SDS011;68477;42.698;23.342;2023-07-20T04:03:55;15.30;;;3.28;;
79076;SDS011;68477;42.698;23.342;2023-07-20T04:06:21;9.77;;;3.10;;
79076;SDS011;68477;42.698;23.342;2023-07-20T04:08:47;9.73;;;3.15;;
79076;SDS011;68477;42.698;23.342;2023-07-20T04:11:12;10.05;;;3.05;;
79076;SDS011;68477;42.698;23.342;2023-07-20T04:13:38;12.27;;;3.35;;
79076;SDS011;68477;42.698;23.342;2023-07-20T04:16:04;10.00;;;3.38;;
79076;SDS011;68477;42.698;23.342;2023-07-20T04:18:29;7.07;;;3.38;;
79076;SDS011;68477;42.698;23.342;2023-07-20T04:20:55;12.07;;;3.20;;
79076;SDS011;68477;42.698;23.342;2023-07-20T04:23:20;18.52;;;4.22;;
79076;SDS011;68477;42.698;23.342;2023-07-20T04:25:45;12.23;;;3.05;;
79076;SDS011;68477;42.698;23.342;2023-07-20T04:28:11;10.90;;;3.42;;
79076;SDS011;68477;42.698;23.342;2023-07-20T04:30:37;13.15;;;4.30;;
79076;SDS011;68477;42.698;23.342;2023-07-20T04:33:03;10.18;;;3.80;;
79076;SDS011;68477;42.698;23.342;2023-07-20T04:38:11;16.35;;;4.20;;
79076;SDS011;68477;42.698;23.342;2023-07-20T04:40:37;17.42;;;5.50;;
79076;SDS011;68477;42.698;23.342;2023-07-20T04:43:04;12.60;;;3.70;;
79076;SDS011;68477;42.698;23.342;2023-07-20T04:45:30;8.95;;;3.60;;
79076;SDS011;68477;42.698;23.342;2023-07-20T04:47:55;13.27;;;4.28;;
79076;SDS011;68477;42.698;23.342;2023-07-20T04:50:22;10.13;;;4.45;;
79076;SDS011;68477;42.698;23.342;2023-07-20T04:52:49;19.25;;;6.07;;
79076;SDS011;68477;42.698;23.342;2023-07-20T04:55:14;14.35;;;5.00;;
79076;SDS011;68477;42.698;23.342;2023-07-20T04:57:40;9.00;;;3.95;;
79076;SDS011;68477;42.698;23.342;2023-07-20T05:00:07;12.45;;;4.18;;
79076;SDS011;68477;42.698;23.342;2023-07-20T05:02:35;12.45;;;3.55;;
79076;SDS011;68477;42.698;23.342;2023-07-20T05:05:01;8.80;;;3.72;;
79076;SDS011;68477;42.698;23.342;2023-07-20T05:07:26;11.32;;;3.67;;
79076;SDS011;68477;42.698;23.342;2023-07-20T05:09:52;10.57;;;4.03;;
79076;SDS011;68477;42.698;23.342;2023-07-20T05:12:17;15.07;;;4.10;;
79076;SDS011;68477;42.698;23.342;2023-07-20T05:14:43;17.88;;;4.30;;
79076;SDS011;68477;42.698;23.342;2023-07-20T05:17:08;11.63;;;3.75;;
79076;SDS011;68477;42.698;23.342;2023-07-20T05:19:33;16.48;;;3.83;;
79076;SDS011;68477;42.698;23.342;2023-07-20T05:21:59;11.20;;;4.18;;
79076;SDS011;68477;42.698;23.342;2023-07-20T05:24:24;13.98;;;3.97;;
79076;SDS011;68477;42.698;23.342;2023-07-20T05:26:50;8.88;;;4.53;;
79076;SDS011;68477;42.698;23.342;2023-07-20T05:29:15;12.38;;;4.22;;
79076;SDS011;68477;42.698;23.342;2023-07-20T05:31:41;18.30;;;4.38;;
79076;SDS011;68477;42.698;23.342;2023-07-20T05:34:06;12.25;;;4.70;;
79076;SDS011;68477;42.698;23.342;2023-07-20T05:36:32;10.55;;;4.05;;
79076;SDS011;68477;42.698;23.342;2023-07-20T05:38:57;11.45;;;4.60;;
79076;SDS011;68477;42.698;23.342;2023-07-20T05:41:23;17.35;;;5.57;;
79076;SDS011;68477;42.698;23.342;2023-07-20T05:43:49;12.73;;;4.55;;
79076;SDS011;68477;42.698;23.342;2023-07-20T05:46:14;20.75;;;5.60;;
79076;SDS011;68477;42.698;23.342;2023-07-20T05:48:39;13.70;;;5.60;;
79076;SDS011;68477;42.698;23.342;2023-07-20T05:51:05;17.88;;;5.05;;
79076;SDS011;68477;42.698;23.342;2023-07-20T05:53:31;28.55;;;10.10;;
79076;SDS011;68477;42.698;23.342;2023-07-20T05:55:56;15.18;;;4.95;;
79076;SDS011;68477;42.698;23.342;2023-07-20T05:58:22;13.77;;;7.22;;
79076;SDS011;68477;42.698;23.342;2023-07-20T06:00:48;16.67;;;5.93;;
79076;SDS011;68477;42.698;23.342;2023-07-20T06:03:14;10.98;;;4.53;;
79076;SDS011;68477;42.698;23.342;2023-07-20T06:05:41;11.15;;;3.85;;
79076;SDS011;68477;42.698;23.342;2023-07-20T06:08:07;8.52;;;3.60;;
79076;SDS011;68477;42.698;23.342;2023-07-20T06:10:32;13.00;;;4.05;;
79076;SDS011;68477;42.698;23.342;2023-07-20T06:12:58;9.20;;;3.78;;
79076;SDS011;68477;42.698;23.342;2023-07-20T06:15:24;14.48;;;5.43;;
79076;SDS011;68477;42.698;23.342;2023-07-20T06:17:54;11.40;;;4.03;;
79076;SDS011;68477;42.698;23.342;2023-07-20T06:20:21;9.43;;;3.58;;
79076;SDS011;68477;42.698;23.342;2023-07-20T06:22:47;10.35;;;4.30;;
79076;SDS011;68477;42.698;23.342;2023-07-20T06:25:13;10.18;;;4.60;;
79076;SDS011;68477;42.698;23.342;2023-07-20T06:27:38;15.82;;;5.57;;
79076;SDS011;68477;42.698;23.342;2023-07-20T06:30:03;10.43;;;4.60;;
79076;SDS011;68477;42.698;23.342;2023-07-20T06:32:29;11.32;;;5.00;;
79076;SDS011;68477;42.698;23.342;2023-07-20T06:34:55;12.68;;;4.85;;
79076;SDS011;68477;42.698;23.342;2023-07-20T06:37:20;8.23;;;4.18;;
79076;SDS011;68477;42.698;23.342;2023-07-20T06:39:45;13.05;;;4.45;;
79076;SDS011;68477;42.698;23.342;2023-07-20T06:42:13;10.80;;;4.53;;
79076;SDS011;68477;42.698;23.342;2023-07-20T06:44:39;13.13;;;4.72;;
79076;SDS011;68477;42.698;23.342;2023-07-20T06:47:04;12.25;;;4.35;;
79076;SDS011;68477;42.698;23.342;2023-07-20T06:49:30;15.48;;;5.30;;
79076;SDS011;68477;42.698;23.342;2023-07-20T06:51:55;11.20;;;4.60;;
79076;SDS011;68477;42.698;23.342;2023-07-20T06:54:21;18.00;;;4.78;;
79076;SDS011;68477;42.698;23.342;2023-07-20T06:56:47;10.68;;;4.82;;
79076;SDS011;68477;42.698;23.342;2023-07-20T06:59:12;11.38;;;4.63;;
79076;SDS011;68477;42.698;23.342;2023-07-20T07:01:38;10.50;;;4.93;;
79076;SDS011;68477;42.698;23.342;2023-07-20T07:04:04;14.73;;;4.30;;
79076;SDS011;68477;42.698;23.342;2023-07-20T07:06:30;11.07;;;4.50;;
79076;SDS011;68477;42.698;23.342;2023-07-20T07:08:56;12.27;;;4.60;;
79076;SDS011;68477;42.698;23.342;2023-07-20T07:11:21;10.43;;;4.10;;
79076;SDS011;68477;42.698;23.342;2023-07-20T07:13:47;19.13;;;4.78;;
79076;SDS011;68477;42.698;23.342;2023-07-20T07:16:15;12.40;;;4.88;;
79076;SDS011;68477;42.698;23.342;2023-07-20T07:18:43;9.85;;;4.13;;
79076;SDS011;68477;42.698;23.342;2023-07-20T07:21:09;11.68;;;4.75;;
79076;SDS011;68477;42.698;23.342;2023-07-20T07:23:35;13.30;;;4.20;;
79076;SDS011;68477;42.698;23.342;2023-07-20T07:26:00;15.48;;;4.13;;
79076;SDS011;68477;42.698;23.342;2023-07-20T07:28:26;14.88;;;4.65;;
79076;SDS011;68477;42.698;23.342;2023-07-20T07:30:54;9.98;;;4.20;;
79076;SDS011;68477;42.698;23.342;2023-07-20T07:33:20;24.52;;;10.82;;
79076;SDS011;68477;42.698;23.342;2023-07-20T07:35:45;17.88;;;5.35;;
79076;SDS011;68477;42.698;23.342;2023-07-20T07:38:10;15.23;;;4.38;;
79076;SDS011;68477;42.698;23.342;2023-07-20T07:40:36;9.32;;;4.10;;
79076;SDS011;68477;42.698;23.342;2023-07-20T07:43:02;14.50;;;4.57;;
79076;SDS011;68477;42.698;23.342;2023-07-20T07:45:27;15.27;;;3.95;;
79076;SDS011;68477;42.698;23.342;2023-07-20T07:47:52;15.90;;;5.90;;
79076;SDS011;68477;42.698;23.342;2023-07-20T07:50:18;13.13;;;4.30;;
79076;SDS011;68477;42.698;23.342;2023-07-20T07:52:43;9.90;;;4.53;;
79076;SDS011;68477;42.698;23.342;2023-07-20T07:55:09;10.27;;;4.10;;
79076;SDS011;68477;42.698;23.342;2023-07-20T07:57:34;9.98;;;3.55;;
79076;SDS011;68477;42.698;23.342;2023-07-20T07:59:59;16.40;;;4.93;;
79076;SDS011;68477;42.698;23.342;2023-07-20T08:02:25;9.85;;;3.63;;
79076;SDS011;68477;42.698;23.342;2023-07-20T08:04:51;10.63;;;4.60;;
79076;SDS011;68477;42.698;23.342;2023-07-20T08:07:17;12.43;;;5.10;;
79076;SDS011;68477;42.698;23.342;2023-07-20T08:09:42;13.52;;;3.97;;
79076;SDS011;68477;42.698;23.342;2023-07-20T08:12:08;7.32;;;3.75;;
79076;SDS011;68477;42.698;23.342;2023-07-20T08:14:33;8.95;;;3.55;;
79076;SDS011;68477;42.698;23.342;2023-07-20T08:16:59;8.07;;;3.58;;
79076;SDS011;68477;42.698;23.342;2023-07-20T08:19:24;12.35;;;3.55;;
79076;SDS011;68477;42.698;23.342;2023-07-20T08:21:50;8.90;;;4.03;;
79076;SDS011;68477;42.698;23.342;2023-07-20T08:24:15;8.90;;;3.58;;
79076;SDS011;68477;42.698;23.342;2023-07-20T08:26:41;16.50;;;5.25;;
79076;SDS011;68477;42.698;23.342;2023-07-20T08:29:06;10.48;;;3.47;;
79076;SDS011;68477;42.698;23.342;2023-07-20T08:31:32;10.77;;;4.13;;
79076;SDS011;68477;42.698;23.342;2023-07-20T08:33:57;12.20;;;3.67;;
79076;SDS011;68477;42.698;23.342;2023-07-20T08:36:22;12.05;;;3.40;;
79076;SDS011;68477;42.698;23.342;2023-07-20T08:38:48;11.73;;;3.65;;
79076;SDS011;68477;42.698;23.342;2023-07-20T08:41:14;10.60;;;3.53;;
79076;SDS011;68477;42.698;23.342;2023-07-20T08:43:40;7.30;;;2.53;;
79076;SDS011;68477;42.698;23.342;2023-07-20T08:46:08;8.98;;;3.15;;
79076;SDS011;68477;42.698;23.342;2023-07-20T08:48:36;9.55;;;2.83;;
79076;SDS011;68477;42.698;23.342;2023-07-20T08:51:01;9.00;;;2.78;;
79076;SDS011;68477;42.698;23.342;2023-07-20T08:53:30;5.25;;;2.28;;
79076;SDS011;68477;42.698;23.342;2023-07-20T08:55:57;8.40;;;3.17;;
79076;SDS011;68477;42.698;23.342;2023-07-20T08:58:25;11.65;;;2.85;;
79076;SDS011;68477;42.698;23.342;2023-07-20T09:00:51;11.18;;;2.47;;
79076;SDS011;68477;42.698;23.342;2023-07-20T09:03:18;7.75;;;2.78;;
79076;SDS011;68477;42.698;23.342;2023-07-20T09:05:44;8.60;;;2.72;;
79076;SDS011;68477;42.698;23.342;2023-07-20T09:08:10;9.20;;;2.97;;
79076;SDS011;68477;42.698;23.342;2023-07-20T09:10:35;7.22;;;2.75;;
79076;SDS011;68477;42.698;23.342;2023-07-20T09:13:02;13.68;;;2.72;;
79076;SDS011;68477;42.698;23.342;2023-07-20T09:15:29;7.57;;;2.72;;
79076;SDS011;68477;42.698;23.342;2023-07-20T09:17:55;10.73;;;3.08;;
79076;SDS011;68477;42.698;23.342;2023-07-20T09:20:20;10.45;;;3.90;;
79076;SDS011;68477;42.698;23.342;2023-07-20T09:22:46;5.57;;;2.70;;
79076;SDS011;68477;42.698;23.342;2023-07-20T09:25:15;7.47;;;2.95;;
79076;SDS011;68477;42.698;23.342;2023-07-20T09:27:43;8.90;;;3.42;;
79076;SDS011;68477;42.698;23.342;2023-07-20T09:32:45;6.60;;;2.85;;
79076;SDS011;68477;42.698;23.342;2023-07-20T09:35:12;7.43;;;2.55;;
79076;SDS011;68477;42.698;23.342;2023-07-20T09:38:05;14.57;;;3.20;;
79076;SDS011;68477;42.698;23.342;2023-07-20T09:40:36;9.90;;;2.60;;
79076;SDS011;68477;42.698;23.342;2023-07-20T09:43:06;7.70;;;2.67;;
79076;SDS011;68477;42.698;23.342;2023-07-20T09:45:34;9.52;;;3.38;;
79076;SDS011;68477;42.698;23.342;2023-07-20T09:48:04;10.63;;;2.90;;
79076;SDS011;68477;42.698;23.342;2023-07-20T09:50:31;10.70;;;3.20;;
79076;SDS011;68477;42.698;23.342;2023-07-20T09:52:57;8.07;;;2.63;;
79076;SDS011;68477;42.698;23.342;2023-07-20T09:55:26;11.68;;;3.08;;
79076;SDS011;68477;42.698;23.342;2023-07-20T09:57:52;11.68;;;4.97;;
79076;SDS011;68477;42.698;23.342;2023-07-20T10:00:18;10.70;;;3.45;;
79076;SDS011;68477;42.698;23.342;2023-07-20T10:02:45;10.80;;;3.40;;
79076;SDS011;68477;42.698;23.342;2023-07-20T10:05:12;7.07;;;3.53;;
79076;SDS011;68477;42.698;23.342;2023-07-20T10:07:49;6.10;;;2.90;;
79076;SDS011;68477;42.698;23.342;2023-07-20T10:10:16;9.90;;;2.42;;
79076;SDS011;68477;42.698;23.342;2023-07-20T10:12:44;9.63;;;2.83;;
79076;SDS011;68477;42.698;23.342;2023-07-20T10:17:53;8.23;;;3.25;;
79076;SDS011;68477;42.698;23.342;2023-07-20T10:20:36;7.05;;;2.50;;
79076;SDS011;68477;42.698;23.342;2023-07-20T10:23:05;6.13;;;2.58;;
79076;SDS011;68477;42.698;23.342;2023-07-20T10:25:31;7.20;;;2.70;;
79076;SDS011;68477;42.698;23.342;2023-07-20T10:28:02;12.60;;;2.58;;
79076;SDS011;68477;42.698;23.342;2023-07-20T10:30:30;10.75;;;2.95;;
79076;SDS011;68477;42.698;23.342;2023-07-20T10:32:56;8.13;;;2.95;;
79076;SDS011;68477;42.698;23.342;2023-07-20T10:35:22;11.02;;;3.53;;
79076;SDS011;68477;42.698;23.342;2023-07-20T10:37:49;10.52;;;2.72;;
79076;SDS011;68477;42.698;23.342;2023-07-20T10:40:25;11.85;;;3.30;;
79076;SDS011;68477;42.698;23.342;2023-07-20T10:42:59;11.77;;;2.72;;
79076;SDS011;68477;42.698;23.342;2023-07-20T10:45:34;7.25;;;2.60;;
79076;SDS011;68477;42.698;23.342;2023-07-20T10:48:03;7.25;;;2.63;;
79076;SDS011;68477;42.698;23.342;2023-07-20T10:50:32;10.23;;;3.25;;
79076;SDS011;68477;42.698;23.342;2023-07-20T10:55:42;6.10;;;2.67;;
79076;SDS011;68477;42.698;23.342;2023-07-20T10:58:12;7.60;;;2.50;;
79076;SDS011;68477;42.698;23.342;2023-07-20T11:00:56;9.02;;;2.97;;
79076;SDS011;68477;42.698;23.342;2023-07-20T11:03:40;6.40;;;2.95;;
79076;SDS011;68477;42.698;23.342;2023-07-20T11:08:54;6.13;;;2.65;;
79076;SDS011;68477;42.698;23.342;2023-07-20T11:11:32;11.45;;;3.10;;
79076;SDS011;68477;42.698;23.342;2023-07-20T11:16:59;6.82;;;2.63;;
79076;SDS011;68477;42.698;23.342;2023-07-20T11:19:21;7.15;;;2.92;;
79076;SDS011;68477;42.698;23.342;2023-07-20T11:24:17;14.25;;;3.00;;
79076;SDS011;68477;42.698;23.342;2023-07-20T11:26:47;7.30;;;3.28;;
79076;SDS011;68477;42.698;23.342;2023-07-20T11:29:17;8.90;;;3.78;;
79076;SDS011;68477;42.698;23.342;2023-07-20T11:31:45;7.07;;;3.45;;
79076;SDS011;68477;42.698;23.342;2023-07-20T11:34:12;12.70;;;4.20;;
79076;SDS011;68477;42.698;23.342;2023-07-20T11:36:41;9.98;;;4.05;;
79076;SDS011;68477;42.698;23.342;2023-07-20T11:39:08;7.40;;;3.75;;
79076;SDS011;68477;42.698;23.342;2023-07-20T11:41:34;12.43;;;4.25;;
79076;SDS011;68477;42.698;23.342;2023-07-20T11:44:00;9.48;;;3.90;;
79076;SDS011;68477;42.698;23.342;2023-07-20T11:46:27;8.93;;;3.60;;
79076;SDS011;68477;42.698;23.342;2023-07-20T11:48:59;11.27;;;3.40;;
79076;SDS011;68477;42.698;23.342;2023-07-20T11:51:25;6.28;;;3.28;;
79076;SDS011;68477;42.698;23.342;2023-07-20T11:53:52;7.32;;;3.60;;
79076;SDS011;68477;42.698;23.342;2023-07-20T11:56:18;6.50;;;2.92;;
79076;SDS011;68477;42.698;23.342;2023-07-20T11:58:44;10.75;;;3.53;;
79076;SDS011;68477;42.698;23.342;2023-07-20T12:01:11;6.53;;;2.80;;
79076;SDS011;68477;42.698;23.342;2023-07-20T12:03:41;9.57;;;3.17;;
79076;SDS011;68477;42.698;23.342;2023-07-20T12:06:09;6.72;;;3.60;;
79076;SDS011;68477;42.698;23.342;2023-07-20T12:08:37;5.32;;;2.92;;
79076;SDS011;68477;42.698;23.342;2023-07-20T12:11:04;6.28;;;3.65;;
79076;SDS011;68477;42.698;23.342;2023-07-20T12:13:36;10.43;;;3.80;;
79076;SDS011;68477;42.698;23.342;2023-07-20T12:18:39;8.55;;;3.42;;
79076;SDS011;68477;42.698;23.342;2023-07-20T12:21:05;6.25;;;3.00;;
79076;SDS011;68477;42.698;23.342;2023-07-20T12:23:37;10.88;;;3.53;;
79076;SDS011;68477;42.698;23.342;2023-07-20T12:26:07;7.85;;;3.13;;
79076;SDS011;68477;42.698;23.342;2023-07-20T12:28:35;8.18;;;3.30;;
79076;SDS011;68477;42.698;23.342;2023-07-20T12:31:04;9.80;;;3.10;;
79076;SDS011;68477;42.698;23.342;2023-07-20T12:33:31;9.05;;;3.33;;
79076;SDS011;68477;42.698;23.342;2023-07-20T12:35:57;9.65;;;3.55;;
79076;SDS011;68477;42.698;23.342;2023-07-20T12:38:24;8.80;;;3.25;;
79076;SDS011;68477;42.698;23.342;2023-07-20T12:40:50;9.43;;;4.13;;
79076;SDS011;68477;42.698;23.342;2023-07-20T12:43:16;12.25;;;3.22;;
79076;SDS011;68477;42.698;23.342;2023-07-20T12:45:41;9.13;;;2.65;;
79076;SDS011;68477;42.698;23.342;2023-07-20T12:48:08;8.10;;;2.92;;
79076;SDS011;68477;42.698;23.342;2023-07-20T12:50:33;8.40;;;3.72;;
79076;SDS011;68477;42.698;23.342;2023-07-20T12:52:59;6.30;;;2.85;;
79076;SDS011;68477;42.698;23.342;2023-07-20T12:55:25;7.35;;;2.90;;
79076;SDS011;68477;42.698;23.342;2023-07-20T12:57:50;10.05;;;2.92;;
79076;SDS011;68477;42.698;23.342;2023-07-20T13:00:16;8.63;;;2.88;;
79076;SDS011;68477;42.698;23.342;2023-07-20T13:02:42;7.70;;;2.65;;
79076;SDS011;68477;42.698;23.342;2023-07-20T13:05:08;11.63;;;3.20;;
79076;SDS011;68477;42.698;23.342;2023-07-20T13:07:34;8.13;;;2.53;;
79076;SDS011;68477;42.698;23.342;2023-07-20T13:10:02;15.13;;;3.05;;
79076;SDS011;68477;42.698;23.342;2023-07-20T13:12:29;9.50;;;2.63;;
79076;SDS011;68477;42.698;23.342;2023-07-20T13:14:58;6.45;;;2.88;;
79076;SDS011;68477;42.698;23.342;2023-07-20T13:17:27;6.65;;;2.90;;
79076;SDS011;68477;42.698;23.342;2023-07-20T13:19:52;10.13;;;2.97;;
79076;SDS011;68477;42.698;23.342;2023-07-20T13:22:18;7.53;;;2.90;;
79076;SDS011;68477;42.698;23.342;2023-07-20T13:24:46;6.65;;;2.97;;
79076;SDS011;68477;42.698;23.342;2023-07-20T13:27:18;6.82;;;2.38;;
79076;SDS011;68477;42.698;23.342;2023-07-20T13:29:44;8.93;;;2.88;;
79076;SDS011;68477;42.698;23.342;2023-07-20T13:32:10;8.32;;;2.58;;
79076;SDS011;68477;42.698;23.342;2023-07-20T13:34:38;11.07;;;2.40;;
79076;SDS011;68477;42.698;23.342;2023-07-20T13:37:03;8.90;;;3.10;;
79076;SDS011;68477;42.698;23.342;2023-07-20T13:39:29;6.10;;;2.97;;
79076;SDS011;68477;42.698;23.342;2023-07-20T13:41:55;6.72;;;2.78;;
79076;SDS011;68477;42.698;23.342;2023-07-20T13:44:20;8.00;;;2.88;;
79076;SDS011;68477;42.698;23.342;2023-07-20T13:46:47;8.40;;;2.88;;
79076;SDS011;68477;42.698;23.342;2023-07-20T13:49:12;9.68;;;2.85;;
79076;SDS011;68477;42.698;23.342;2023-07-20T13:51:39;15.20;;;3.35;;
79076;SDS011;68477;42.698;23.342;2023-07-20T13:54:05;7.32;;;2.92;;
79076;SDS011;68477;42.698;23.342;2023-07-20T13:56:31;8.93;;;3.05;;
79076;SDS011;68477;42.698;23.342;2023-07-20T13:58:56;7.28;;;2.72;;
79076;SDS011;68477;42.698;23.342;2023-07-20T14:01:22;6.57;;;2.70;;
79076;SDS011;68477;42.698;23.342;2023-07-20T14:03:49;8.98;;;3.83;;
79076;SDS011;68477;42.698;23.342;2023-07-20T14:06:17;8.30;;;2.88;;
79076;SDS011;68477;42.698;23.342;2023-07-20T14:08:43;13.00;;;2.78;;
79076;SDS011;68477;42.698;23.342;2023-07-20T14:11:11;9.52;;;3.58;;
79076;SDS011;68477;42.698;23.342;2023-07-20T14:13:37;8.90;;;2.33;;
79076;SDS011;68477;42.698;23.342;2023-07-20T14:16:03;11.95;;;2.80;;
79076;SDS011;68477;42.698;23.342;2023-07-20T14:18:28;11.52;;;2.83;;
79076;SDS011;68477;42.698;23.342;2023-07-20T14:20:54;9.25;;;2.47;;
79076;SDS011;68477;42.698;23.342;2023-07-20T14:23:19;8.48;;;2.40;;
79076;SDS011;68477;42.698;23.342;2023-07-20T14:25:44;6.63;;;2.70;;
79076;SDS011;68477;42.698;23.342;2023-07-20T14:28:10;17.38;;;3.40;;
79076;SDS011;68477;42.698;23.342;2023-07-20T14:30:35;10.73;;;2.97;;
79076;SDS011;68477;42.698;23.342;2023-07-20T14:33:01;7.43;;;2.85;;
79076;SDS011;68477;42.698;23.342;2023-07-20T14:35:27;13.45;;;3.95;;
79076;SDS011;68477;42.698;23.342;2023-07-20T14:37:53;18.08;;;3.15;;
79076;SDS011;68477;42.698;23.342;2023-07-20T14:40:19;6.80;;;2.30;;
79076;SDS011;68477;42.698;23.342;2023-07-20T14:42:44;8.80;;;3.53;;
79076;SDS011;68477;42.698;23.342;2023-07-20T14:45:10;10.13;;;2.60;;
79076;SDS011;68477;42.698;23.342;2023-07-20T14:47:35;6.35;;;2.70;;
79076;SDS011;68477;42.698;23.342;2023-07-20T14:50:01;7.13;;;2.97;;
79076;SDS011;68477;42.698;23.342;2023-07-20T14:52:30;8.07;;;2.63;;
79076;SDS011;68477;42.698;23.342;2023-07-20T14:54:55;9.25;;;3.38;;
79076;SDS011;68477;42.698;23.342;2023-07-20T14:57:21;11.05;;;2.80;;
79076;SDS011;68477;42.698;23.342;2023-07-20T14:59:48;6.95;;;3.78;;